HTZA

Abeid Amani Karume International Airport

Zanzibar, Tanzania
METAR HTZA 210300Z 00000KT 9999 BKN016 25/24 Q1011 NOSIG
Observed Flight Rules
Jan-21 @ 03:00 UTC (2 hours ago) Marginal Visual Flight Rules
Wind Visibility Clouds
Calm 10,000+ meters
  • Broken at 1,600' AGL
Temperatures Readings
Current 25°C / 77°F
Dewpoint 24°C / 75°F
Humidity 94%
Altimeter 29.85" Hg
Pressure 1011 hPa
Elevation 15
METAR HTZA 210300Z 00000KT 9999 BKN016 25/24 Q1011 NOSIG
Observed Flight Rules
Jan-21 @ 03:00 UTC
(2 hours ago)
MVFR
Wind Visibility
Calm 10,000+ meters
Clouds
  • Broken at 1,600' AGL
Temperature Dewpoint
25°C / 77°F 24°C / 75°F
Humidity Altimeter Pressure
94% 29.85" Hg 1011 hPa